sensor_id;sensor_type;location;lat;lon;timestamp;pressure;altitude;pressure_sealevel;temperature;humidity
76074;BME280;64776;42.636;24.358;2023-04-01T00:00:45;89423.75;;;2.87;77.81
76074;BME280;64776;42.636;24.358;2023-04-01T00:03:47;89421.41;;;2.89;78.00
76074;BME280;64776;42.636;24.358;2023-04-01T00:06:48;89427.25;;;3.02;77.81
76074;BME280;64776;42.636;24.358;2023-04-01T00:09:49;89416.69;;;3.11;78.21
76074;BME280;64776;42.636;24.358;2023-04-01T00:13:15;89421.81;;;3.15;77.13
76074;BME280;64776;42.636;24.358;2023-04-01T00:16:16;89425.44;;;3.17;76.78
76074;BME280;64776;42.636;24.358;2023-04-01T00:19:18;89419.19;;;3.06;77.33
76074;BME280;64776;42.636;24.358;2023-04-01T00:22:19;89425.78;;;3.10;77.78
76074;BME280;64776;42.636;24.358;2023-04-01T00:25:20;89422.22;;;3.22;77.36
76074;BME280;64776;42.636;24.358;2023-04-01T00:28:21;89414.44;;;3.37;76.82
76074;BME280;64776;42.636;24.358;2023-04-01T00:31:22;89404.75;;;3.43;76.42
76074;BME280;64776;42.636;24.358;2023-04-01T00:34:24;89402.69;;;3.38;76.15
76074;BME280;64776;42.636;24.358;2023-04-01T00:37:25;89398.31;;;3.44;76.50
76074;BME280;64776;42.636;24.358;2023-04-01T00:40:29;89399.91;;;3.42;76.88
76074;BME280;64776;42.636;24.358;2023-04-01T00:43:31;89394.66;;;3.33;77.27
76074;BME280;64776;42.636;24.358;2023-04-01T00:46:32;89385.25;;;3.41;76.55
76074;BME280;64776;42.636;24.358;2023-04-01T00:49:36;89374.78;;;3.22;77.06
76074;BME280;64776;42.636;24.358;2023-04-01T00:52:39;89380.94;;;3.19;77.67
76074;BME280;64776;42.636;24.358;2023-04-01T00:55:43;89384.03;;;3.18;78.04
76074;BME280;64776;42.636;24.358;2023-04-01T00:58:49;89384.75;;;3.27;77.19
76074;BME280;64776;42.636;24.358;2023-04-01T01:01:51;89387.38;;;3.27;77.18
76074;BME280;64776;42.636;24.358;2023-04-01T01:04:54;89374.03;;;3.31;77.68
76074;BME280;64776;42.636;24.358;2023-04-01T01:08:01;89381.25;;;3.12;78.16
76074;BME280;64776;42.636;24.358;2023-04-01T01:11:08;89363.19;;;3.29;78.07
76074;BME280;64776;42.636;24.358;2023-04-01T01:14:23;89363.94;;;3.29;78.41
76074;BME280;64776;42.636;24.358;2023-04-01T01:17:33;89370.06;;;3.36;78.31
76074;BME280;64776;42.636;24.358;2023-04-01T01:21:12;89359.63;;;3.41;78.09
76074;BME280;64776;42.636;24.358;2023-04-01T01:24:49;89353.50;;;3.35;78.64
76074;BME280;64776;42.636;24.358;2023-04-01T01:27:58;89358.41;;;3.09;79.00
76074;BME280;64776;42.636;24.358;2023-04-01T01:31:10;89353.41;;;3.20;79.38
76074;BME280;64776;42.636;24.358;2023-04-01T01:34:19;89348.66;;;3.01;80.54
76074;BME280;64776;42.636;24.358;2023-04-01T01:37:26;89339.94;;;3.27;79.47
76074;BME280;64776;42.636;24.358;2023-04-01T01:40:29;89336.50;;;3.36;79.45
76074;BME280;64776;42.636;24.358;2023-04-01T01:43:36;89339.34;;;3.56;79.42
76074;BME280;64776;42.636;24.358;2023-04-01T01:46:38;89333.19;;;3.59;79.20
76074;BME280;64776;42.636;24.358;2023-04-01T01:49:41;89331.56;;;3.62;78.70
76074;BME280;64776;42.636;24.358;2023-04-01T01:52:44;89337.09;;;3.64;77.92
76074;BME280;64776;42.636;24.358;2023-04-01T01:55:46;89334.88;;;3.71;78.20
76074;BME280;64776;42.636;24.358;2023-04-01T01:58:49;89325.06;;;3.72;77.56
76074;BME280;64776;42.636;24.358;2023-04-01T02:01:53;89330.25;;;3.57;78.16
76074;BME280;64776;42.636;24.358;2023-04-01T02:04:56;89325.97;;;3.69;78.91
76074;BME280;64776;42.636;24.358;2023-04-01T02:08:02;89322.38;;;3.81;78.48
76074;BME280;64776;42.636;24.358;2023-04-01T02:11:08;89329.88;;;3.97;78.58
76074;BME280;64776;42.636;24.358;2023-04-01T02:14:11;89331.88;;;4.02;77.69
76074;BME280;64776;42.636;24.358;2023-04-01T02:17:17;89322.97;;;3.99;77.47
76074;BME280;64776;42.636;24.358;2023-04-01T02:20:20;89316.97;;;3.99;77.58
76074;BME280;64776;42.636;24.358;2023-04-01T02:23:23;89315.72;;;4.09;77.67
76074;BME280;64776;42.636;24.358;2023-04-01T02:26:25;89306.09;;;4.21;77.41
76074;BME280;64776;42.636;24.358;2023-04-01T02:29:26;89305.00;;;4.27;76.64
76074;BME280;64776;42.636;24.358;2023-04-01T02:32:28;89309.03;;;4.37;76.57
76074;BME280;64776;42.636;24.358;2023-04-01T02:35:29;89293.94;;;4.38;76.35
76074;BME280;64776;42.636;24.358;2023-04-01T02:38:35;89295.19;;;4.28;76.73
76074;BME280;64776;42.636;24.358;2023-04-01T02:41:39;89285.66;;;4.30;76.22
76074;BME280;64776;42.636;24.358;2023-04-01T02:44:40;89283.28;;;4.32;76.95
76074;BME280;64776;42.636;24.358;2023-04-01T02:47:41;89275.97;;;4.27;76.71
76074;BME280;64776;42.636;24.358;2023-04-01T02:50:42;89268.69;;;4.22;76.83
76074;BME280;64776;42.636;24.358;2023-04-01T02:53:44;89266.06;;;4.22;77.72
76074;BME280;64776;42.636;24.358;2023-04-01T02:56:46;89270.16;;;4.23;77.21
76074;BME280;64776;42.636;24.358;2023-04-01T02:59:46;89270.41;;;4.25;77.23
76074;BME280;64776;42.636;24.358;2023-04-01T03:02:47;89266.25;;;4.33;77.20
76074;BME280;64776;42.636;24.358;2023-04-01T03:05:48;89258.53;;;4.44;76.52
76074;BME280;64776;42.636;24.358;2023-04-01T03:08:50;89261.34;;;4.41;76.61
76074;BME280;64776;42.636;24.358;2023-04-01T03:11:51;89267.63;;;4.43;76.95
76074;BME280;64776;42.636;24.358;2023-04-01T03:14:53;89262.06;;;4.41;77.12
76074;BME280;64776;42.636;24.358;2023-04-01T03:17:54;89261.50;;;4.37;77.17
76074;BME280;64776;42.636;24.358;2023-04-01T03:20:55;89265.53;;;4.33;76.31
76074;BME280;64776;42.636;24.358;2023-04-01T03:23:57;89254.41;;;4.14;78.24
76074;BME280;64776;42.636;24.358;2023-04-01T03:26:58;89252.31;;;4.18;77.49
76074;BME280;64776;42.636;24.358;2023-04-01T03:29:59;89253.41;;;4.26;77.96
76074;BME280;64776;42.636;24.358;2023-04-01T03:33:00;89258.78;;;4.32;77.12
76074;BME280;64776;42.636;24.358;2023-04-01T03:36:01;89259.25;;;4.30;77.32
76074;BME280;64776;42.636;24.358;2023-04-01T03:39:03;89266.16;;;4.28;76.84
76074;BME280;64776;42.636;24.358;2023-04-01T03:42:04;89259.59;;;4.23;77.89
76074;BME280;64776;42.636;24.358;2023-04-01T03:45:06;89259.84;;;4.25;77.50
76074;BME280;64776;42.636;24.358;2023-04-01T03:48:07;89259.94;;;4.16;77.83
76074;BME280;64776;42.636;24.358;2023-04-01T03:51:08;89262.31;;;4.14;77.74
76074;BME280;64776;42.636;24.358;2023-04-01T03:54:11;89265.50;;;4.18;76.79
76074;BME280;64776;42.636;24.358;2023-04-01T03:57:12;89267.22;;;4.21;77.25
76074;BME280;64776;42.636;24.358;2023-04-01T04:00:13;89269.13;;;4.21;77.74
76074;BME280;64776;42.636;24.358;2023-04-01T04:03:14;89267.31;;;4.27;77.07
76074;BME280;64776;42.636;24.358;2023-04-01T04:06:15;89262.63;;;4.31;77.34
76074;BME280;64776;42.636;24.358;2023-04-01T04:09:18;89257.50;;;4.27;77.26
76074;BME280;64776;42.636;24.358;2023-04-01T04:12:19;89255.13;;;4.29;76.47
76074;BME280;64776;42.636;24.358;2023-04-01T04:15:19;89247.94;;;4.30;76.53
76074;BME280;64776;42.636;24.358;2023-04-01T04:18:20;89248.22;;;4.32;77.49
76074;BME280;64776;42.636;24.358;2023-04-01T04:21:21;89255.88;;;4.30;77.08
76074;BME280;64776;42.636;24.358;2023-04-01T04:24:23;89252.69;;;4.26;78.28
76074;BME280;64776;42.636;24.358;2023-04-01T04:27:24;89249.03;;;4.23;77.89
76074;BME280;64776;42.636;24.358;2023-04-01T04:30:25;89251.66;;;4.23;78.37
76074;BME280;64776;42.636;24.358;2023-04-01T04:33:26;89246.19;;;4.27;79.05
76074;BME280;64776;42.636;24.358;2023-04-01T04:36:26;89242.66;;;4.30;79.22
76074;BME280;64776;42.636;24.358;2023-04-01T04:39:29;89247.41;;;4.26;78.63
76074;BME280;64776;42.636;24.358;2023-04-01T04:42:30;89242.47;;;4.33;78.58
76074;BME280;64776;42.636;24.358;2023-04-01T04:45:31;89243.28;;;4.39;79.38
76074;BME280;64776;42.636;24.358;2023-04-01T04:48:32;89241.31;;;4.34;80.10
76074;BME280;64776;42.636;24.358;2023-04-01T04:51:33;89230.63;;;4.43;79.31
76074;BME280;64776;42.636;24.358;2023-04-01T04:54:35;89216.25;;;4.44;79.45
76074;BME280;64776;42.636;24.358;2023-04-01T04:57:36;89213.81;;;4.55;79.13
76074;BME280;64776;42.636;24.358;2023-04-01T05:00:36;89209.50;;;4.58;79.09
76074;BME280;64776;42.636;24.358;2023-04-01T05:03:37;89216.06;;;4.62;78.59
76074;BME280;64776;42.636;24.358;2023-04-01T05:06:38;89225.28;;;4.52;78.54
76074;BME280;64776;42.636;24.358;2023-04-01T05:09:41;89207.34;;;4.56;78.79
76074;BME280;64776;42.636;24.358;2023-04-01T05:12:41;89199.06;;;4.63;78.59
76074;BME280;64776;42.636;24.358;2023-04-01T05:15:42;89202.72;;;4.51;80.31
76074;BME280;64776;42.636;24.358;2023-04-01T05:18:43;89201.97;;;4.65;78.74
76074;BME280;64776;42.636;24.358;2023-04-01T05:21:44;89195.22;;;4.64;79.64
76074;BME280;64776;42.636;24.358;2023-04-01T05:24:47;89178.47;;;4.67;80.12
76074;BME280;64776;42.636;24.358;2023-04-01T05:27:47;89165.88;;;4.62;80.68
76074;BME280;64776;42.636;24.358;2023-04-01T05:30:48;89170.44;;;4.62;80.89
76074;BME280;64776;42.636;24.358;2023-04-01T05:33:52;89154.44;;;4.85;80.76
76074;BME280;64776;42.636;24.358;2023-04-01T05:36:53;89149.59;;;4.99;79.74
76074;BME280;64776;42.636;24.358;2023-04-01T05:39:55;89144.38;;;5.04;79.31
76074;BME280;64776;42.636;24.358;2023-04-01T05:42:56;89140.78;;;5.07;79.09
76074;BME280;64776;42.636;24.358;2023-04-01T05:45:57;89134.13;;;5.12;79.86
76074;BME280;64776;42.636;24.358;2023-04-01T05:48:58;89117.94;;;5.24;79.42
76074;BME280;64776;42.636;24.358;2023-04-01T05:51:59;89120.31;;;5.22;79.43
76074;BME280;64776;42.636;24.358;2023-04-01T05:55:01;89117.56;;;5.31;79.44
76074;BME280;64776;42.636;24.358;2023-04-01T05:58:02;89115.88;;;5.34;79.72
76074;BME280;64776;42.636;24.358;2023-04-01T06:01:05;89103.59;;;5.31;79.25
76074;BME280;64776;42.636;24.358;2023-04-01T06:04:06;89104.38;;;5.37;79.51
76074;BME280;64776;42.636;24.358;2023-04-01T06:07:17;89104.00;;;5.44;79.87
76074;BME280;64776;42.636;24.358;2023-04-01T06:10:21;89102.78;;;5.45;79.77
76074;BME280;64776;42.636;24.358;2023-04-01T06:13:37;89118.91;;;5.67;78.58
76074;BME280;64776;42.636;24.358;2023-04-01T06:16:53;89119.69;;;5.73;79.37
76074;BME280;64776;42.636;24.358;2023-04-01T06:20:03;89115.56;;;5.92;78.16
76074;BME280;64776;42.636;24.358;2023-04-01T06:23:35;89110.47;;;6.14;77.63
76074;BME280;64776;42.636;24.358;2023-04-01T06:26:46;89107.78;;;6.34;77.03
76074;BME280;64776;42.636;24.358;2023-04-01T06:30:07;89111.25;;;6.51;76.45
76074;BME280;64776;42.636;24.358;2023-04-01T06:33:32;89122.31;;;6.81;75.98
76074;BME280;64776;42.636;24.358;2023-04-01T06:36:47;89120.50;;;6.98;75.80
76074;BME280;64776;42.636;24.358;2023-04-01T06:40:03;89112.84;;;7.11;74.75
76074;BME280;64776;42.636;24.358;2023-04-01T06:43:13;89110.09;;;7.43;74.15
76074;BME280;64776;42.636;24.358;2023-04-01T06:46:19;89107.78;;;7.67;72.42
76074;BME280;64776;42.636;24.358;2023-04-01T06:49:44;89106.19;;;7.97;71.95
76074;BME280;64776;42.636;24.358;2023-04-01T06:52:56;89093.91;;;8.21;71.43
76074;BME280;64776;42.636;24.358;2023-04-01T06:56:02;89104.56;;;8.49;69.36
76074;BME280;64776;42.636;24.358;2023-04-01T06:59:11;89091.28;;;8.77;69.11
76074;BME280;64776;42.636;24.358;2023-04-01T07:02:23;89099.94;;;9.05;68.91
76074;BME280;64776;42.636;24.358;2023-04-01T07:05:25;89091.88;;;9.38;68.44
76074;BME280;64776;42.636;24.358;2023-04-01T07:08:34;89080.03;;;9.97;65.24
76074;BME280;64776;42.636;24.358;2023-04-01T07:11:37;89073.63;;;10.57;61.69
76074;BME280;64776;42.636;24.358;2023-04-01T07:14:42;89073.44;;;10.79;56.86
76074;BME280;64776;42.636;24.358;2023-04-01T07:17:45;89074.56;;;10.89;57.45
76074;BME280;64776;42.636;24.358;2023-04-01T07:20:48;89075.41;;;11.03;55.82
76074;BME280;64776;42.636;24.358;2023-04-01T07:23:51;89073.81;;;11.18;56.23
76074;BME280;64776;42.636;24.358;2023-04-01T07:26:56;89083.00;;;11.23;55.59
76074;BME280;64776;42.636;24.358;2023-04-01T07:29:58;89070.75;;;11.33;55.24
76074;BME280;64776;42.636;24.358;2023-04-01T07:33:04;89068.56;;;11.56;54.16
76074;BME280;64776;42.636;24.358;2023-04-01T07:36:10;89063.19;;;11.80;53.31
76074;BME280;64776;42.636;24.358;2023-04-01T07:39:26;89058.50;;;11.86;51.86
76074;BME280;64776;42.636;24.358;2023-04-01T07:42:39;89056.41;;;11.97;51.79
76074;BME280;64776;42.636;24.358;2023-04-01T07:45:51;89062.34;;;12.09;51.29
76074;BME280;64776;42.636;24.358;2023-04-01T07:49:00;89056.91;;;12.14;49.79
76074;BME280;64776;42.636;24.358;2023-04-01T07:52:08;89051.50;;;12.20;49.85
76074;BME280;64776;42.636;24.358;2023-04-01T07:55:16;89050.63;;;12.31;48.68
76074;BME280;64776;42.636;24.358;2023-04-01T07:58:27;89047.31;;;12.24;48.77
76074;BME280;64776;42.636;24.358;2023-04-01T08:01:39;89035.66;;;12.22;49.14
76074;BME280;64776;42.636;24.358;2023-04-01T08:04:51;89036.25;;;12.15;49.35
76074;BME280;64776;42.636;24.358;2023-04-01T08:08:04;89024.91;;;12.27;49.35
76074;BME280;64776;42.636;24.358;2023-04-01T08:11:14;89016.78;;;12.33;48.85
76074;BME280;64776;42.636;24.358;2023-04-01T08:14:26;89007.66;;;12.42;48.42
76074;BME280;64776;42.636;24.358;2023-04-01T08:17:36;89012.69;;;12.32;47.31
76074;BME280;64776;42.636;24.358;2023-04-01T08:20:45;88995.59;;;12.35;48.02
76074;BME280;64776;42.636;24.358;2023-04-01T08:23:51;89003.19;;;12.31;48.13
76074;BME280;64776;42.636;24.358;2023-04-01T08:26:56;88988.72;;;12.40;47.53
76074;BME280;64776;42.636;24.358;2023-04-01T08:30:00;89002.44;;;12.49;47.65
76074;BME280;64776;42.636;24.358;2023-04-01T08:33:09;88985.06;;;12.56;46.92
76074;BME280;64776;42.636;24.358;2023-04-01T08:36:14;88974.09;;;12.72;47.72
76074;BME280;64776;42.636;24.358;2023-04-01T08:39:19;88978.31;;;12.81;46.33
76074;BME280;64776;42.636;24.358;2023-04-01T08:45:56;88975.44;;;12.79;47.34
76074;BME280;64776;42.636;24.358;2023-04-01T08:49:04;88964.41;;;12.69;46.27
76074;BME280;64776;42.636;24.358;2023-04-01T08:52:36;88981.53;;;12.79;46.50
76074;BME280;64776;42.636;24.358;2023-04-01T08:55:44;88966.47;;;12.76;46.59
76074;BME280;64776;42.636;24.358;2023-04-01T08:59:02;88970.56;;;12.64;47.06
76074;BME280;64776;42.636;24.358;2023-04-01T09:02:40;88968.22;;;12.61;47.21
76074;BME280;64776;42.636;24.358;2023-04-01T09:09:41;88960.81;;;12.67;46.99
76074;BME280;64776;42.636;24.358;2023-04-01T09:12:55;88956.56;;;12.58;47.36
76074;BME280;64776;42.636;24.358;2023-04-01T09:16:21;88949.28;;;12.59;47.21
76074;BME280;64776;42.636;24.358;2023-04-01T09:19:33;88951.84;;;12.64;46.60
76074;BME280;64776;42.636;24.358;2023-04-01T09:22:50;88941.59;;;12.81;47.88
76074;BME280;64776;42.636;24.358;2023-04-01T09:26:08;88941.69;;;12.89;46.61
76074;BME280;64776;42.636;24.358;2023-04-01T09:29:31;88936.00;;;12.92;45.60
76074;BME280;64776;42.636;24.358;2023-04-01T09:36:26;88922.06;;;13.13;44.65
76074;BME280;64776;42.636;24.358;2023-04-01T09:39:35;88915.25;;;13.12;45.03
76074;BME280;64776;42.636;24.358;2023-04-01T09:42:48;88906.88;;;13.28;46.41
76074;BME280;64776;42.636;24.358;2023-04-01T09:46:10;88905.00;;;13.49;45.80
76074;BME280;64776;42.636;24.358;2023-04-01T09:49:38;88902.91;;;13.55;45.98
76074;BME280;64776;42.636;24.358;2023-04-01T09:52:47;88897.44;;;13.61;46.02
76074;BME280;64776;42.636;24.358;2023-04-01T10:00:13;88887.97;;;13.60;46.64
76074;BME280;64776;42.636;24.358;2023-04-01T10:03:22;88892.50;;;13.52;46.72
76074;BME280;64776;42.636;24.358;2023-04-01T10:06:57;88883.00;;;13.64;47.26
76074;BME280;64776;42.636;24.358;2023-04-01T10:17:48;88865.41;;;14.30;43.28
76074;BME280;64776;42.636;24.358;2023-04-01T10:21:16;88855.84;;;14.42;42.84
76074;BME280;64776;42.636;24.358;2023-04-01T10:35:20;88825.44;;;14.76;42.37
76074;BME280;64776;42.636;24.358;2023-04-01T10:38:59;88819.69;;;15.00;42.86
76074;BME280;64776;42.636;24.358;2023-04-01T10:42:30;88823.38;;;15.25;42.07
76074;BME280;64776;42.636;24.358;2023-04-01T10:49:37;88811.75;;;15.30;42.39
76074;BME280;64776;42.636;24.358;2023-04-01T10:53:05;88812.63;;;15.25;42.95
76074;BME280;64776;42.636;24.358;2023-04-01T10:56:34;88805.63;;;15.22;42.64
76074;BME280;64776;42.636;24.358;2023-04-01T11:00:15;88808.78;;;15.05;41.67
76074;BME280;64776;42.636;24.358;2023-04-01T11:07:21;88796.38;;;15.02;40.82
76074;BME280;64776;42.636;24.358;2023-04-01T11:21:49;88766.25;;;14.89;42.15
76074;BME280;64776;42.636;24.358;2023-04-01T11:25:16;88761.91;;;14.78;43.47
76074;BME280;64776;42.636;24.358;2023-04-01T11:28:35;88760.81;;;14.74;43.42
76074;BME280;64776;42.636;24.358;2023-04-01T11:31:53;88761.69;;;14.68;42.13
76074;BME280;64776;42.636;24.358;2023-04-01T11:35:14;88753.72;;;14.84;41.37
76074;BME280;64776;42.636;24.358;2023-04-01T11:38:30;88755.72;;;14.91;40.79
76074;BME280;64776;42.636;24.358;2023-04-01T11:41:41;88754.09;;;14.88;41.33
76074;BME280;64776;42.636;24.358;2023-04-01T11:44:51;88749.41;;;14.81;41.04
76074;BME280;64776;42.636;24.358;2023-04-01T11:48:18;88750.41;;;14.62;40.97
76074;BME280;64776;42.636;24.358;2023-04-01T11:54:56;88732.34;;;14.63;40.74
76074;BME280;64776;42.636;24.358;2023-04-01T11:58:29;88728.72;;;14.60;41.05
76074;BME280;64776;42.636;24.358;2023-04-01T12:01:44;88732.81;;;14.54;41.63
76074;BME280;64776;42.636;24.358;2023-04-01T12:05:00;88736.13;;;14.39;47.68
76074;BME280;64776;42.636;24.358;2023-04-01T12:08:15;88750.66;;;13.95;53.27
76074;BME280;64776;42.636;24.358;2023-04-01T12:11:26;88736.44;;;13.59;52.21
76074;BME280;64776;42.636;24.358;2023-04-01T12:14:38;88733.16;;;13.53;49.07
76074;BME280;64776;42.636;24.358;2023-04-01T12:17:48;88741.06;;;13.38;50.31
76074;BME280;64776;42.636;24.358;2023-04-01T12:20:57;88731.22;;;13.33;51.05
76074;BME280;64776;42.636;24.358;2023-04-01T12:28:05;88715.97;;;13.28;51.55
76074;BME280;64776;42.636;24.358;2023-04-01T12:31:14;88709.25;;;13.14;51.75
76074;BME280;64776;42.636;24.358;2023-04-01T12:38:07;88718.91;;;13.17;52.54
76074;BME280;64776;42.636;24.358;2023-04-01T12:41:19;88720.09;;;13.29;53.01
76074;BME280;64776;42.636;24.358;2023-04-01T12:44:33;88729.38;;;13.28;51.71
76074;BME280;64776;42.636;24.358;2023-04-01T12:54:57;88743.25;;;13.05;53.07
76074;BME280;64776;42.636;24.358;2023-04-01T12:58:27;88809.28;;;12.64;54.05
76074;BME280;64776;42.636;24.358;2023-04-01T13:01:49;88859.75;;;12.02;55.40
76074;BME280;64776;42.636;24.358;2023-04-01T13:05:09;88883.66;;;11.25;61.39
76074;BME280;64776;42.636;24.358;2023-04-01T13:08:30;88914.91;;;10.21;67.68
76074;BME280;64776;42.636;24.358;2023-04-01T13:11:51;88930.22;;;9.79;71.77
76074;BME280;64776;42.636;24.358;2023-04-01T13:15:13;88953.97;;;9.37;74.10
76074;BME280;64776;42.636;24.358;2023-04-01T13:18:25;88968.72;;;8.75;78.59
76074;BME280;64776;42.636;24.358;2023-04-01T13:21:38;88969.25;;;8.51;79.70
76074;BME280;64776;42.636;24.358;2023-04-01T13:24:51;88963.72;;;8.21;80.58
76074;BME280;64776;42.636;24.358;2023-04-01T13:27:58;88965.91;;;7.95;82.44
76074;BME280;64776;42.636;24.358;2023-04-01T13:31:07;88966.16;;;7.97;81.62
76074;BME280;64776;42.636;24.358;2023-04-01T13:34:21;88962.78;;;7.80;82.41
76074;BME280;64776;42.636;24.358;2023-04-01T13:37:39;88953.59;;;7.81;82.06
76074;BME280;64776;42.636;24.358;2023-04-01T13:40:51;88942.97;;;7.70;82.41
76074;BME280;64776;42.636;24.358;2023-04-01T13:44:02;88935.72;;;7.87;82.02
76074;BME280;64776;42.636;24.358;2023-04-01T13:47:17;88926.31;;;7.97;81.03
76074;BME280;64776;42.636;24.358;2023-04-01T13:50:34;88916.16;;;8.12;80.28
76074;BME280;64776;42.636;24.358;2023-04-01T13:53:51;88911.06;;;8.14;81.45
76074;BME280;64776;42.636;24.358;2023-04-01T13:57:07;88916.41;;;8.20;80.80
76074;BME280;64776;42.636;24.358;2023-04-01T14:12:15;88882.06;;;8.39;81.85
76074;BME280;64776;42.636;24.358;2023-04-01T14:15:29;88879.69;;;8.30;84.39
76074;BME280;64776;42.636;24.358;2023-04-01T14:18:47;88875.78;;;8.42;84.99
76074;BME280;64776;42.636;24.358;2023-04-01T14:22:25;88877.25;;;8.32;84.77
76074;BME280;64776;42.636;24.358;2023-04-01T14:25:53;88898.97;;;8.41;85.97
76074;BME280;64776;42.636;24.358;2023-04-01T14:29:03;88919.53;;;8.41;82.55
76074;BME280;64776;42.636;24.358;2023-04-01T14:32:15;88880.41;;;8.19;83.64
76074;BME280;64776;42.636;24.358;2023-04-01T14:35:27;88740.28;;;8.36;85.96
76074;BME280;64776;42.636;24.358;2023-04-01T14:38:42;88751.34;;;9.16;85.42
76074;BME280;64776;42.636;24.358;2023-04-01T14:41:51;88770.34;;;9.31;79.99
76074;BME280;64776;42.636;24.358;2023-04-01T14:45:25;88775.16;;;9.62;79.76
76074;BME280;64776;42.636;24.358;2023-04-01T14:48:37;88765.34;;;9.76;79.23
76074;BME280;64776;42.636;24.358;2023-04-01T14:51:39;88763.28;;;9.63;79.54
76074;BME280;64776;42.636;24.358;2023-04-01T14:54:42;88764.19;;;9.71;78.12
76074;BME280;64776;42.636;24.358;2023-04-01T14:57:58;88760.41;;;9.61;79.05
76074;BME280;64776;42.636;24.358;2023-04-01T15:01:13;88757.97;;;9.63;77.10
76074;BME280;64776;42.636;24.358;2023-04-01T15:04:38;88758.50;;;9.56;79.35
76074;BME280;64776;42.636;24.358;2023-04-01T15:08:04;88748.94;;;9.72;78.26
76074;BME280;64776;42.636;24.358;2023-04-01T15:11:32;88758.44;;;10.16;77.55
76074;BME280;64776;42.636;24.358;2023-04-01T15:15:11;88757.16;;;10.59;75.84
76074;BME280;64776;42.636;24.358;2023-04-01T15:18:20;88748.38;;;10.64;75.95
76074;BME280;64776;42.636;24.358;2023-04-01T15:25:13;88748.28;;;10.09;76.00
76074;BME280;64776;42.636;24.358;2023-04-01T15:28:24;88753.53;;;9.71;77.51
76074;BME280;64776;42.636;24.358;2023-04-01T15:31:32;88758.41;;;9.67;76.95
76074;BME280;64776;42.636;24.358;2023-04-01T15:34:44;88756.41;;;9.73;77.70
76074;BME280;64776;42.636;24.358;2023-04-01T15:37:54;88749.97;;;9.88;76.99
76074;BME280;64776;42.636;24.358;2023-04-01T15:41:02;88758.47;;;9.86;77.83
76074;BME280;64776;42.636;24.358;2023-04-01T15:47:38;88776.91;;;9.54;78.77
76074;BME280;64776;42.636;24.358;2023-04-01T15:50:51;88782.44;;;9.32;80.48
76074;BME280;64776;42.636;24.358;2023-04-01T15:54:06;88782.03;;;8.87;81.75
76074;BME280;64776;42.636;24.358;2023-04-01T15:57:20;88777.63;;;8.55;82.73
76074;BME280;64776;42.636;24.358;2023-04-01T16:00:29;88799.22;;;8.23;83.35
76074;BME280;64776;42.636;24.358;2023-04-01T16:03:37;88796.13;;;8.08;82.60
76074;BME280;64776;42.636;24.358;2023-04-01T16:06:53;88802.94;;;7.98;83.76
76074;BME280;64776;42.636;24.358;2023-04-01T16:10:09;88805.78;;;8.11;82.98
76074;BME280;64776;42.636;24.358;2023-04-01T16:13:28;88796.53;;;8.35;82.25
76074;BME280;64776;42.636;24.358;2023-04-01T16:16:42;88809.09;;;8.40;80.92
76074;BME280;64776;42.636;24.358;2023-04-01T16:19:52;88813.44;;;8.43;81.00
76074;BME280;64776;42.636;24.358;2023-04-01T16:22:59;88810.25;;;8.50;80.82
76074;BME280;64776;42.636;24.358;2023-04-01T16:26:07;88808.84;;;8.43;80.84
76074;BME280;64776;42.636;24.358;2023-04-01T16:29:16;88802.81;;;8.43;80.46
76074;BME280;64776;42.636;24.358;2023-04-01T16:32:37;88792.41;;;8.39;80.63
76074;BME280;64776;42.636;24.358;2023-04-01T16:35:44;88789.38;;;8.13;82.29
76074;BME280;64776;42.636;24.358;2023-04-01T16:38:50;88785.31;;;7.95;81.72
76074;BME280;64776;42.636;24.358;2023-04-01T16:42:08;88781.69;;;7.87;81.26
76074;BME280;64776;42.636;24.358;2023-04-01T16:45:22;88776.44;;;7.65;82.09
76074;BME280;64776;42.636;24.358;2023-04-01T16:48:28;88782.53;;;7.44;83.06
76074;BME280;64776;42.636;24.358;2023-04-01T16:51:40;88790.03;;;7.23;83.88
76074;BME280;64776;42.636;24.358;2023-04-01T16:54:51;88791.22;;;7.33;83.40
76074;BME280;64776;42.636;24.358;2023-04-01T16:57:57;88814.59;;;7.34;82.66
76074;BME280;64776;42.636;24.358;2023-04-01T17:01:02;88814.59;;;7.34;83.10
76074;BME280;64776;42.636;24.358;2023-04-01T17:04:07;88819.44;;;7.25;82.68
76074;BME280;64776;42.636;24.358;2023-04-01T17:07:20;88847.88;;;7.30;82.53
76074;BME280;64776;42.636;24.358;2023-04-01T17:10:49;88846.47;;;7.29;83.13
76074;BME280;64776;42.636;24.358;2023-04-01T17:14:01;88866.94;;;7.12;83.74
76074;BME280;64776;42.636;24.358;2023-04-01T17:17:20;88929.84;;;7.11;84.93
76074;BME280;64776;42.636;24.358;2023-04-01T17:20:35;88973.78;;;6.59;82.63
76074;BME280;64776;42.636;24.358;2023-04-01T17:23:43;88982.09;;;6.04;84.36
76074;BME280;64776;42.636;24.358;2023-04-01T17:26:53;88982.41;;;5.55;85.61
76074;BME280;64776;42.636;24.358;2023-04-01T17:30:22;88960.44;;;5.43;86.14
76074;BME280;64776;42.636;24.358;2023-04-01T17:33:36;88938.13;;;5.50;86.70
76074;BME280;64776;42.636;24.358;2023-04-01T17:36:51;88930.66;;;5.48;87.75
76074;BME280;64776;42.636;24.358;2023-04-01T17:40:05;88912.59;;;5.47;87.85
76074;BME280;64776;42.636;24.358;2023-04-01T17:43:16;88910.72;;;5.53;87.62
76074;BME280;64776;42.636;24.358;2023-04-01T17:46:31;88907.91;;;5.62;87.78
76074;BME280;64776;42.636;24.358;2023-04-01T17:49:39;88906.25;;;5.64;87.05
76074;BME280;64776;42.636;24.358;2023-04-01T17:52:46;88909.94;;;5.78;86.75
76074;BME280;64776;42.636;24.358;2023-04-01T17:56:00;88919.53;;;5.70;86.19
76074;BME280;64776;42.636;24.358;2023-04-01T17:59:11;88931.03;;;5.67;85.35
76074;BME280;64776;42.636;24.358;2023-04-01T18:02:21;88921.69;;;5.71;84.70
76074;BME280;64776;42.636;24.358;2023-04-01T18:05:31;88927.22;;;5.68;83.96
76074;BME280;64776;42.636;24.358;2023-04-01T18:08:49;88930.28;;;5.61;84.38
76074;BME280;64776;42.636;24.358;2023-04-01T18:12:00;88942.47;;;5.53;85.25